Time;durP1;ratioP1;P1;durP2;ratioP2;P2;SDS_P1;SDS_P2;PMS_P1;PMS_P2;Temp;Humidity;BMP_temperature;BMP_pressure;BME280_temperature;BME280_humidity;BME280_pressure;Samples;Min_cycle;Max_cycle;Signal;HPM_P1;HPM_P2
2023/05/27 00:02:22;;;;;;;15.73;11.77;;;;;;;16.44;67.78;98988.41;4822444;29;20087;-72
2023/05/27 00:04:48;;;;;;;15.27;10.93;;;;;;;16.42;67.65;98974.28;4808898;29;20045;-70
2023/05/27 00:07:13;;;;;;;16.88;11.85;;;;;;;16.37;67.94;98982.81;4823274;29;20049;-70
2023/05/27 00:09:38;;;;;;;14.40;10.65;;;;;;;16.36;67.99;99001.84;4809471;29;20049;-70
2023/05/27 00:12:04;;;;;;;14.82;10.60;;;;;;;16.32;67.95;98971.72;4825542;29;20049;-71
2023/05/27 00:14:31;;;;;;;17.38;11.27;;;;;;;16.31;68.58;98965.50;4825579;29;20042;-70
2023/05/27 00:16:56;;;;;;;17.00;11.55;;;;;;;16.31;68.56;98995.09;4824434;29;20057;-70
2023/05/27 00:19:24;;;;;;;17.38;11.48;;;;;;;16.34;68.20;98967.88;4822974;29;20057;-71
2023/05/27 00:21:53;;;;;;;17.55;11.23;;;;;;;16.38;68.36;98970.22;4794127;29;20057;-69
2023/05/27 00:24:20;;;;;;;15.35;10.88;;;;;;;16.39;68.87;98964.69;4824874;29;20049;-70
2023/05/27 00:26:46;;;;;;;13.60;10.75;;;;;;;16.44;68.60;98961.50;4839660;29;20045;-71
2023/05/27 00:29:12;;;;;;;16.67;10.50;;;;;;;16.46;68.64;98981.03;4825994;29;20050;-71
2023/05/27 00:31:38;;;;;;;16.45;11.60;;;;;;;16.47;68.82;98961.19;4824751;29;20551;-70
2023/05/27 00:34:03;;;;;;;14.85;10.25;;;;;;;16.47;68.85;98994.31;4824477;29;20049;-72
2023/05/27 00:36:31;;;;;;;17.60;11.23;;;;;;;16.45;69.20;98984.72;4822936;29;20045;-69
2023/05/27 00:39:01;;;;;;;17.60;11.60;;;;;;;16.46;69.32;98970.28;4808809;29;20521;-69
2023/05/27 00:41:27;;;;;;;15.13;12.13;;;;;;;16.43;69.77;98970.59;4825401;29;20053;-68
2023/05/27 00:43:52;;;;;;;18.48;11.45;;;;;;;16.39;69.25;98991.59;4825224;29;20041;-67
2023/05/27 00:46:19;;;;;;;15.43;11.80;;;;;;;16.38;69.12;98989.91;4823306;29;20061;-67
2023/05/27 00:48:47;;;;;;;24.55;12.95;;;;;;;16.31;69.75;98987.03;4824122;29;20053;-67
2023/05/27 00:51:12;;;;;;;15.88;11.80;;;;;;;16.28;69.40;98983.81;4825584;29;20053;-71
2023/05/27 00:53:46;;;;;;;13.93;10.85;;;;;;;16.23;69.74;98987.00;4824728;29;20049;-66
2023/05/27 00:56:15;;;;;;;16.77;10.98;;;;;;;16.20;69.46;98981.94;4825475;29;20049;-66
2023/05/27 00:58:42;;;;;;;18.35;11.48;;;;;;;16.17;69.86;98993.00;4825580;29;20057;-66
2023/05/27 01:01:09;;;;;;;18.27;11.75;;;;;;;16.15;69.97;99010.28;4823673;29;20060;-72
2023/05/27 01:03:41;;;;;;;16.17;11.90;;;;;;;16.11;70.32;98999.03;4824818;29;20045;-69
2023/05/27 01:06:30;;;;;;;15.75;11.43;;;;;;;16.15;70.40;99000.38;4822893;29;20421;-71
2023/05/27 01:09:33;;;;;;;24.83;12.20;;;;;;;16.13;70.75;98997.03;4813653;29;20056;-70
2023/05/27 01:12:15;;;;;;;25.00;12.80;;;;;;;16.08;70.78;98993.97;4823023;29;20056;-70
2023/05/27 01:14:43;;;;;;;21.50;11.45;;;;;;;16.01;70.67;98992.94;4811385;29;20602;-70
2023/05/27 01:17:10;;;;;;;15.43;10.98;;;;;;;15.98;71.28;98999.47;4824211;29;20061;-71
2023/05/27 01:19:50;;;;;;;12.77;10.93;;;;;;;16.01;71.36;99006.38;4792512;29;20072;-70
2023/05/27 01:22:19;;;;;;;14.63;10.48;;;;;;;15.99;71.57;98994.94;4823941;29;20053;-71
2023/05/27 01:24:48;;;;;;;25.63;11.55;;;;;;;15.97;71.56;98999.63;4823795;29;20056;-71
2023/05/27 01:27:40;;;;;;;14.00;10.52;;;;;;;15.97;71.36;98992.41;4824989;29;20060;-72
2023/05/27 01:30:07;;;;;;;19.27;10.35;;;;;;;15.98;72.15;98995.94;4823628;29;20532;-72
2023/05/27 01:32:47;;;;;;;15.73;10.90;;;;;;;16.03;72.47;99001.66;4839236;29;20523;-72
2023/05/27 01:35:43;;;;;;;14.68;9.70;;;;;;;16.04;72.30;99002.50;4808449;29;20069;-72
2023/05/27 01:38:17;;;;;;;15.23;9.65;;;;;;;16.01;72.14;99018.97;4824731;29;20493;-68
2023/05/27 01:40:45;;;;;;;14.60;10.32;;;;;;;15.99;71.92;99005.69;4823880;29;20050;-68
2023/05/27 01:43:14;;;;;;;11.27;9.25;;;;;;;15.96;72.54;99014.06;4823668;29;20421;-68
2023/05/27 01:45:42;;;;;;;18.27;11.30;;;;;;;15.94;72.62;98992.72;4823539;29;20402;-67
2023/05/27 01:48:12;;;;;;;12.48;8.50;;;;;;;15.95;73.29;98993.56;4823159;29;20056;-68
2023/05/27 01:50:37;;;;;;;17.42;10.95;;;;;;;15.94;73.09;99024.97;4823476;29;20053;-68
2023/05/27 01:53:03;;;;;;;11.75;10.25;;;;;;;15.95;72.83;98996.25;4824790;29;20049;-68
2023/05/27 01:55:31;;;;;;;12.65;9.30;;;;;;;15.98;72.70;99004.00;4807853;29;20060;-67
2023/05/27 01:57:57;;;;;;;11.68;9.48;;;;;;;16.00;72.93;98998.47;4823518;29;20057;-69
2023/05/27 02:00:24;;;;;;;13.38;10.15;;;;;;;16.01;73.13;99009.06;4807488;29;20046;-69
2023/05/27 02:02:52;;;;;;;11.55;9.63;;;;;;;16.03;72.42;99001.66;4824062;29;20454;-68
2023/05/27 02:05:19;;;;;;;12.77;9.68;;;;;;;16.04;72.23;98997.13;4822525;29;20060;-69
2023/05/27 02:07:44;;;;;;;15.02;9.65;;;;;;;16.06;72.46;99012.09;4823278;29;20064;-69
2023/05/27 02:10:10;;;;;;;14.45;8.95;;;;;;;16.09;72.23;99005.56;4823080;29;20042;-74
2023/05/27 02:13:05;;;;;;;13.43;9.77;;;;;;;16.11;71.81;99012.47;4822847;29;20057;-66
2023/05/27 02:15:31;;;;;;;11.85;10.07;;;;;;;16.12;71.01;99014.16;4819912;29;20053;-65
2023/05/27 02:17:57;;;;;;;16.63;9.27;;;;;;;16.11;71.01;99015.16;4821909;29;20053;-65
2023/05/27 02:20:29;;;;;;;12.95;9.27;;;;;;;16.13;70.70;99023.94;4823187;29;20077;-67
2023/05/27 02:23:19;;;;;;;13.30;8.40;;;;;;;16.14;70.58;99030.97;4828123;29;20069;-68
2023/05/27 02:25:44;;;;;;;12.57;8.73;;;;;;;16.17;70.25;99029.81;4806755;29;20049;-66
2023/05/27 02:28:11;;;;;;;10.85;8.63;;;;;;;16.20;69.75;99014.19;4823878;29;20053;-66
2023/05/27 02:30:39;;;;;;;14.23;8.32;;;;;;;16.24;69.54;99031.72;4822670;29;20052;-67
2023/05/27 02:33:07;;;;;;;11.32;8.52;;;;;;;16.29;69.13;99018.63;4821178;29;20061;-73
2023/05/27 02:35:35;;;;;;;11.60;8.30;;;;;;;16.36;68.71;99018.84;4814940;29;20056;-74
2023/05/27 02:38:00;;;;;;;10.80;7.63;;;;;;;16.43;68.18;99022.56;4817852;29;20564;-72
2023/05/27 02:40:29;;;;;;;21.77;10.02;;;;;;;16.50;68.28;99030.81;4820734;29;20061;-71
2023/05/27 02:42:56;;;;;;;11.10;8.57;;;;;;;16.59;67.84;99025.28;4823642;29;20046;-73
2023/05/27 02:45:23;;;;;;;12.35;7.55;;;;;;;16.68;67.03;99028.91;4806787;29;20049;-74
2023/05/27 02:47:49;;;;;;;13.82;7.78;;;;;;;16.77;66.67;99033.28;4822460;29;20419;-72
2023/05/27 02:50:41;;;;;;;9.82;7.53;;;;;;;16.83;65.97;99056.00;4829388;29;20076;-71
2023/05/27 02:53:06;;;;;;;20.70;8.27;;;;;;;16.93;65.58;99043.28;4807333;29;20065;-74
2023/05/27 02:55:33;;;;;;;15.07;8.20;;;;;;;17.01;65.06;99046.84;4823076;29;20049;-76
2023/05/27 02:58:00;;;;;;;12.75;8.43;;;;;;;17.11;64.70;99046.69;4822703;29;20049;-70
2023/05/27 03:00:25;;;;;;;11.00;7.80;;;;;;;17.21;64.10;99046.53;4822251;29;20049;-63
2023/05/27 03:02:50;;;;;;;9.63;7.70;;;;;;;17.31;63.60;99048.03;4823830;29;20057;-63
2023/05/27 03:05:20;;;;;;;13.48;8.45;;;;;;;17.37;63.03;99074.34;4822820;29;20139;-64
2023/05/27 03:07:52;;;;;;;9.65;7.22;;;;;;;17.44;62.78;99052.94;4814939;29;20050;-65
2023/05/27 03:10:17;;;;;;;10.75;8.07;;;;;;;17.55;62.87;99055.31;4811548;29;20050;-65
2023/05/27 03:12:43;;;;;;;12.43;7.32;;;;;;;17.67;62.37;99053.16;4820618;29;20064;-65
2023/05/27 03:15:08;;;;;;;14.75;8.35;;;;;;;17.71;61.77;99060.75;4823268;29;20045;-74
2023/05/27 03:17:37;;;;;;;10.50;7.32;;;;;;;17.72;61.94;99062.41;4825879;29;20066;-71
2023/05/27 03:20:05;;;;;;;15.85;7.68;;;;;;;17.71;61.33;99065.28;4825556;29;20421;-72
2023/05/27 03:22:57;;;;;;;10.07;7.03;;;;;;;17.81;60.93;99060.56;4824935;29;20053;-71
2023/05/27 03:25:24;;;;;;;10.05;7.28;;;;;;;17.92;61.37;99053.97;4825448;29;20294;-70
2023/05/27 03:27:49;;;;;;;10.23;7.05;;;;;;;18.05;60.57;99044.34;4809991;29;20045;-69
2023/05/27 03:30:18;;;;;;;9.05;6.90;;;;;;;18.22;60.36;99058.63;4825309;29;20068;-69
2023/05/27 03:32:49;;;;;;;10.27;6.88;;;;;;;18.34;59.61;99054.56;4809723;29;20854;-69
2023/05/27 03:35:24;;;;;;;11.93;7.07;;;;;;;18.50;58.37;99062.63;4809077;29;20061;-70
2023/05/27 03:37:49;;;;;;;13.05;6.50;;;;;;;18.65;58.05;99059.19;4827492;29;20041;-70
2023/05/27 03:40:15;;;;;;;8.93;6.47;;;;;;;18.79;57.28;99063.88;4825830;29;20610;-71
2023/05/27 03:42:40;;;;;;;7.95;6.28;;;;;;;18.91;56.37;99080.50;4826731;29;20046;-70
2023/05/27 03:45:06;;;;;;;9.10;6.65;;;;;;;19.03;55.76;99068.31;4825597;29;20056;-72
2023/05/27 03:47:56;;;;;;;11.18;7.00;;;;;;;19.19;54.88;99062.78;4825365;29;20406;-70
2023/05/27 03:50:23;;;;;;;10.95;6.57;;;;;;;19.29;53.95;99073.38;4825513;29;20418;-70
2023/05/27 03:52:48;;;;;;;7.68;5.95;;;;;;;19.40;53.38;99076.53;4825180;29;20049;-70
2023/05/27 03:55:16;;;;;;;14.20;6.85;;;;;;;19.53;53.11;99075.94;4825383;29;20537;-70
2023/05/27 03:57:43;;;;;;;27.73;8.52;;;;;;;19.62;52.51;99087.53;4826623;29;20037;-71
2023/05/27 04:00:11;;;;;;;12.55;7.13;;;;;;;19.70;51.96;99082.06;4825479;29;20053;-71
2023/05/27 04:03:05;;;;;;;10.35;5.97;;;;;;;19.84;51.70;99075.88;4826578;29;20049;-70
2023/05/27 04:05:30;;;;;;;13.98;6.18;;;;;;;19.92;51.40;99086.59;4809962;29;20056;-72
2023/05/27 04:07:57;;;;;;;9.68;5.88;;;;;;;19.99;50.87;99101.06;4826424;29;20049;-72
2023/05/27 04:10:22;;;;;;;12.32;6.22;;;;;;;20.11;50.96;99083.38;4794584;29;20509;-71
2023/05/27 04:12:48;;;;;;;9.02;6.25;;;;;;;20.22;50.76;99082.91;4825408;29;20053;-72
2023/05/27 04:15:16;;;;;;;7.90;6.00;;;;;;;20.33;50.20;99099.72;4826295;29;20052;-72
2023/05/27 04:17:42;;;;;;;10.85;5.97;;;;;;;20.40;49.94;99079.06;4825040;29;20053;-72
2023/05/27 04:20:14;;;;;;;11.15;5.88;;;;;;;20.48;49.14;99097.91;4825383;29;20091;-72
2023/05/27 04:22:46;;;;;;;9.05;5.80;;;;;;;20.60;49.20;99091.84;4825822;29;20049;-71
2023/05/27 04:25:13;;;;;;;12.10;6.55;;;;;;;20.73;48.86;99102.03;4795171;29;20425;-72
2023/05/27 04:28:28;;;;;;;9.38;5.80;;;;;;;20.93;48.22;99118.56;4830814;29;20053;-72
2023/05/27 04:30:57;;;;;;;8.68;5.80;;;;;;;21.13;47.79;99092.53;4825837;29;20057;-71
2023/05/27 04:33:44;;;;;;;14.27;5.85;;;;;;;21.42;47.15;99091.66;4809886;29;20046;-71
2023/05/27 04:36:11;;;;;;;7.93;5.18;;;;;;;21.68;46.13;99104.63;4809482;29;20060;-69
2023/05/27 04:38:54;;;;;;;9.13;5.72;;;;;;;22.03;45.62;99089.31;4809566;29;20408;-69
2023/05/27 04:41:27;;;;;;;11.40;6.63;;;;;;;22.32;44.95;99089.16;4808895;29;20053;-70
2023/05/27 04:44:11;;;;;;;8.75;6.22;;;;;;;22.62;43.63;99111.50;4809145;29;20373;-71
2023/05/27 04:46:43;;;;;;;7.38;5.38;;;;;;;22.86;43.27;99090.31;4824450;29;20053;-70
2023/05/27 04:49:10;;;;;;;8.00;4.93;;;;;;;23.05;42.12;99100.44;4824457;29;20049;-70
2023/05/27 04:51:44;;;;;;;7.90;4.85;;;;;;;23.17;41.40;99096.09;4824549;29;20416;-69
2023/05/27 04:54:12;;;;;;;;;;;;;;;23.55;40.56;99118.22;4825008;29;20050;-70
2023/05/27 04:56:39;;;;;;;7.63;5.18;;;;;;;23.59;40.98;99111.31;4824450;29;19927;-70
2023/05/27 04:59:16;;;;;;;9.60;5.47;;;;;;;23.87;40.77;99095.69;4794119;29;20060;-71
2023/05/27 05:04:34;;;;;;;8.57;5.28;;;;;;;24.63;38.62;99118.91;4824205;29;20115;-70
2023/05/27 05:07:01;;;;;;;9.05;5.18;;;;;;;24.91;37.71;99101.25;4824294;29;20045;-69
2023/05/27 05:09:30;;;;;;;10.25;4.90;;;;;;;25.11;36.67;99070.34;4824262;29;20057;-69
2023/05/27 05:12:06;;;;;;;13.10;5.45;;;;;;;25.25;36.92;99105.53;4808421;29;20050;-71
2023/05/27 05:14:38;;;;;;;9.77;5.32;;;;;;;25.39;36.51;99113.66;4824130;29;20049;-70
2023/05/27 05:17:08;;;;;;;9.50;4.75;;;;;;;25.49;36.27;99106.69;4808773;29;20057;-70
2023/05/27 05:19:33;;;;;;;6.30;4.47;;;;;;;25.59;35.55;99101.59;4823692;29;20057;-70
2023/05/27 05:22:02;;;;;;;7.60;4.45;;;;;;;25.76;34.81;99101.91;4824081;29;20049;-69
2023/05/27 05:24:57;;;;;;;7.57;4.30;;;;;;;25.96;33.90;99096.31;4811824;29;20061;-70
2023/05/27 05:27:48;;;;;;;9.18;4.55;;;;;;;26.06;33.58;99123.13;4824170;29;20056;-69
2023/05/27 05:30:16;;;;;;;11.05;4.60;;;;;;;26.14;32.61;99117.41;4825161;29;20497;-70
2023/05/27 05:32:42;;;;;;;8.75;4.88;;;;;;;26.14;32.62;99099.09;4823747;29;20057;-69
2023/05/27 05:35:34;;;;;;;7.35;4.78;;;;;;;26.17;32.56;99109.59;4823463;29;20509;-70
2023/05/27 05:38:22;;;;;;;7.40;3.97;;;;;;;26.40;32.09;99111.75;4822502;29;20046;-70
2023/05/27 05:40:54;;;;;;;6.72;4.15;;;;;;;26.61;32.29;99115.94;4824032;29;20060;-71
2023/05/27 05:43:48;;;;;;;9.85;5.75;;;;;;;27.07;30.98;99104.53;4823480;29;20049;-70
2023/05/27 05:46:15;;;;;;;8.52;4.15;;;;;;;27.26;31.13;99119.03;4823752;29;20049;-70
2023/05/27 05:48:42;;;;;;;5.80;4.15;;;;;;;27.58;30.17;99122.41;4823497;29;20053;-70
2023/05/27 05:51:14;;;;;;;9.68;4.88;;;;;;;28.04;29.41;99121.72;4823244;29;20057;-69
2023/05/27 05:53:44;;;;;;;7.65;3.88;;;;;;;28.35;28.86;99146.13;4823507;29;20509;-69
2023/05/27 05:56:09;;;;;;;7.93;4.50;;;;;;;28.61;28.48;99116.56;4792805;29;20064;-70
2023/05/27 05:58:35;;;;;;;5.50;3.83;;;;;;;29.00;28.71;99110.38;4823316;29;20045;-70
2023/05/27 06:01:01;;;;;;;7.10;4.35;;;;;;;29.54;28.17;99119.19;4823310;29;20531;-72
2023/05/27 06:03:34;;;;;;;10.15;4.50;;;;;;;30.09;26.92;99129.56;4823032;29;20409;-71
2023/05/27 06:06:02;;;;;;;11.63;4.07;;;;;;;30.56;26.24;99141.13;4807748;29;20053;-71
2023/05/27 06:08:30;;;;;;;7.72;4.30;;;;;;;31.03;25.66;99114.84;4822974;29;20501;-75
2023/05/27 06:11:02;;;;;;;8.67;5.57;;;;;;;31.55;24.53;99110.78;4807837;29;20544;-74
2023/05/27 06:13:30;;;;;;;6.38;3.92;;;;;;;32.16;23.80;99114.19;4823009;29;20294;-73
2023/05/27 06:15:57;;;;;;;6.97;4.53;;;;;;;32.62;23.49;99123.69;4823164;29;20071;-70
2023/05/27 06:18:27;;;;;;;7.50;4.32;;;;;;;32.88;23.15;99114.50;4822764;29;20049;-70
2023/05/27 06:20:52;;;;;;;5.07;3.97;;;;;;;33.35;22.77;99111.72;4822819;29;20056;-71
2023/05/27 06:23:24;;;;;;;7.43;4.25;;;;;;;33.92;22.19;99119.06;4807313;29;20535;-70
2023/05/27 06:29:03;;;;;;;8.00;4.60;;;;;;;34.88;21.48;99119.06;4807176;29;20084;-70
2023/05/27 06:31:30;;;;;;;13.98;4.63;;;;;;;35.18;21.25;99129.25;4807294;29;20433;-70
2023/05/27 06:34:00;;;;;;;5.95;4.50;;;;;;;35.42;20.83;99126.69;4822675;29;20425;-70
2023/05/27 06:37:16;;;;;;;9.15;5.07;;;;;;;36.07;20.09;99121.88;4807246;29;20520;-71
2023/05/27 06:40:35;;;;;;;5.40;4.30;;;;;;;36.35;19.60;99135.00;4807907;29;20449;-71
2023/05/27 06:43:31;;;;;;;6.32;5.10;;;;;;;36.28;20.01;99144.78;4810011;29;20045;-71
2023/05/27 06:46:22;;;;;;;7.97;4.68;;;;;;;36.53;19.83;99135.41;4823604;29;20057;-71
2023/05/27 06:49:00;;;;;;;9.32;4.43;;;;;;;36.91;19.57;99125.34;4823610;29;20060;-70
2023/05/27 06:51:50;;;;;;;12.35;4.82;;;;;;;37.57;18.99;99105.91;4825266;29;20041;-70
2023/05/27 06:54:21;;;;;;;9.40;4.90;;;;;;;37.46;19.07;99103.56;4826131;29;20057;-71
2023/05/27 06:56:48;;;;;;;8.57;5.20;;;;;;;37.59;18.71;99108.38;4826408;29;20053;-70
2023/05/27 06:59:39;;;;;;;10.65;4.88;;;;;;;37.57;18.39;99133.75;4827535;29;20042;-70
2023/05/27 07:02:05;;;;;;;9.25;5.05;;;;;;;37.62;18.46;99108.66;4826372;29;20144;-71
2023/05/27 07:04:33;;;;;;;10.77;5.20;;;;;;;37.98;17.96;99111.72;4827477;29;20053;-69
2023/05/27 07:07:02;;;;;;;7.93;5.70;;;;;;;38.30;17.82;99110.97;4825946;29;20398;-70
2023/05/27 07:09:29;;;;;;;8.98;5.20;;;;;;;38.60;17.68;99106.84;4810416;29;20064;-71
2023/05/27 07:12:20;;;;;;;10.50;5.53;;;;;;;39.21;17.15;99120.44;4827115;29;20420;-71
2023/05/27 07:14:51;;;;;;;24.23;8.60;;;;;;;39.81;17.21;99114.72;4825995;29;20049;-71
2023/05/27 07:17:19;;;;;;;13.05;7.10;;;;;;;40.24;16.45;99139.41;4826003;29;20053;-69
2023/05/27 07:19:51;;;;;;;9.40;5.90;;;;;;;40.76;16.29;99137.81;4810321;29;20473;-70
2023/05/27 07:22:21;;;;;;;9.90;5.82;;;;;;;40.97;15.83;99140.91;4810346;29;20428;-70
2023/05/27 07:24:51;;;;;;;7.65;5.38;;;;;;;41.02;15.86;99125.94;4825911;29;20446;-69
2023/05/27 07:27:23;;;;;;;11.75;5.85;;;;;;;40.87;15.55;99130.81;4825666;29;20417;-71
2023/05/27 07:29:55;;;;;;;7.90;6.13;;;;;;;41.08;15.30;99119.91;4825515;29;20048;-69
2023/05/27 07:32:46;;;;;;;7.00;6.30;;;;;;;41.40;14.27;99123.47;4812856;29;20571;-71
2023/05/27 07:35:13;;;;;;;10.82;6.63;;;;;;;41.30;14.73;99111.44;4826948;29;20049;-71
2023/05/27 07:37:42;;;;;;;7.25;6.65;;;;;;;41.39;14.52;99130.22;4795102;29;20060;-70
2023/05/27 07:40:09;;;;;;;7.13;6.35;;;;;;;41.66;14.80;99124.38;4826707;29;20064;-70
2023/05/27 07:42:41;;;;;;;8.00;7.25;;;;;;;42.17;14.62;99112.41;4814859;29;20056;-71
2023/05/27 07:48:25;;;;;;;8.43;6.30;;;;;;;43.60;12.35;99122.22;4826638;29;20048;-72
2023/05/27 07:51:19;;;;;;;7.68;6.85;;;;;;;44.86;12.15;99122.59;4825518;29;20497;-72
2023/05/27 07:53:52;;;;;;;17.27;10.27;;;;;;;44.64;11.84;99119.34;4825437;29;20045;-72
2023/05/27 07:56:22;;;;;;;9.02;7.22;;;;;;;45.04;11.65;99111.16;4825360;29;20054;-72
2023/05/27 07:59:18;;;;;;;9.20;8.40;;;;;;;45.22;11.69;99112.56;4826195;29;20049;-72
2023/05/27 08:01:46;;;;;;;9.35;8.48;;;;;;;45.41;11.64;99120.41;4825239;29;20525;-71
2023/05/27 08:04:17;;;;;;;8.70;7.70;;;;;;;45.64;11.47;99129.22;4809622;29;20398;-71
2023/05/27 08:07:02;;;;;;;9.38;8.50;;;;;;;45.88;11.24;99115.09;4825108;29;20049;-70
2023/05/27 08:09:47;;;;;;;9.35;8.35;;;;;;;46.07;11.62;99101.19;4824927;29;20056;-71
2023/05/27 08:13:12;;;;;;;10.82;9.70;;;;;;;46.89;12.30;99114.78;4824625;29;20057;-71
2023/05/27 08:16:04;;;;;;;10.60;9.55;;;;;;;45.86;12.44;99132.34;4825977;29;20049;-71
2023/05/27 08:18:43;;;;;;;10.25;9.35;;;;;;;45.72;12.11;99109.38;4823244;29;20061;-70
2023/05/27 08:21:21;;;;;;;11.48;10.15;;;;;;;45.96;12.51;99108.50;4795332;29;20061;-71
2023/05/27 08:24:14;;;;;;;10.35;8.93;;;;;;;46.13;12.54;99096.94;4805319;29;20058;-71
2023/05/27 08:26:58;;;;;;;;;;;;;;;47.94;12.45;99107.31;4792599;29;20441;-72
2023/05/27 08:29:35;;;;;;;13.38;10.48;;;;;;;46.71;12.20;99105.88;4790183;29;20005;-72
2023/05/27 08:32:35;;;;;;;12.52;11.52;;;;;;;46.84;11.70;99089.69;4769039;29;20058;-72
2023/05/27 08:35:06;;;;;;;14.55;10.80;;;;;;;46.82;12.08;99094.88;4738746;29;20063;-71
2023/05/27 08:37:57;;;;;;;11.23;10.23;;;;;;;47.67;12.35;99102.63;4768884;29;20053;-71
2023/05/27 08:40:27;;;;;;;11.98;10.90;;;;;;;46.86;12.61;99078.81;4739019;29;20058;-73
2023/05/27 08:42:55;;;;;;;14.40;13.07;;;;;;;46.76;12.10;99096.31;4753684;29;20794;-71
2023/05/27 08:45:22;;;;;;;13.02;11.85;;;;;;;46.89;12.15;99098.69;4754166;29;20082;-72
2023/05/27 08:47:49;;;;;;;13.05;11.88;;;;;;;47.07;11.94;99096.31;4753358;29;20684;-70
2023/05/27 08:50:22;;;;;;;14.05;12.70;;;;;;;47.38;11.99;99094.69;4753859;29;20050;-72
2023/05/27 08:52:53;;;;;;;13.43;12.15;;;;;;;47.68;11.32;99101.44;4768964;29;20046;-73
2023/05/27 08:55:28;;;;;;;14.88;12.65;;;;;;;47.49;12.28;99107.06;4753636;29;20066;-72
2023/05/27 08:57:57;;;;;;;13.85;12.75;;;;;;;47.36;11.92;99091.38;4754000;29;20039;-71
2023/05/27 09:00:32;;;;;;;13.60;12.63;;;;;;;47.41;12.08;99086.28;4754161;29;20055;-72
2023/05/27 09:03:13;;;;;;;16.02;14.70;;;;;;;47.55;12.00;99082.97;4754031;29;20062;-69
2023/05/27 09:05:39;;;;;;;14.65;13.50;;;;;;;47.61;12.17;99087.16;4779104;29;20050;-71
2023/05/27 09:08:07;;;;;;;14.48;13.07;;;;;;;47.94;12.19;99078.22;4803414;29;20080;-73
2023/05/27 09:10:41;;;;;;;16.17;14.85;;;;;;;48.42;12.17;99079.63;4824305;29;20052;-71
2023/05/27 09:13:07;;;;;;;15.90;14.60;;;;;;;48.07;12.13;99081.72;4823547;29;20049;-72
2023/05/27 09:15:33;;;;;;;15.80;14.48;;;;;;;47.90;12.26;99091.44;4823797;29;20060;-73
2023/05/27 09:18:00;;;;;;;16.92;15.73;;;;;;;48.01;12.05;99090.47;4825281;29;20041;-73
2023/05/27 09:20:26;;;;;;;14.93;13.63;;;;;;;47.99;11.78;99075.91;4823516;29;20069;-73
2023/05/27 09:23:02;;;;;;;15.75;14.57;;;;;;;48.51;11.74;99090.72;4823759;29;20063;-72
2023/05/27 09:25:29;;;;;;;16.65;15.55;;;;;;;48.09;12.04;99085.81;4825086;29;20052;-73
2023/05/27 09:27:58;;;;;;;16.63;15.43;;;;;;;48.11;12.04;99083.44;4824651;29;20061;-74
2023/05/27 09:30:25;;;;;;;15.43;14.32;;;;;;;48.29;11.88;99092.28;4823635;29;20064;-72
2023/05/27 09:32:51;;;;;;;19.50;18.00;;;;;;;48.56;12.23;99087.56;4823523;29;20064;-73
2023/05/27 09:35:18;;;;;;;19.65;18.13;;;;;;;48.49;11.88;99079.78;4825029;29;20050;-74
2023/05/27 09:37:45;;;;;;;19.40;18.00;;;;;;;48.60;11.99;99082.78;4823703;29;20041;-73
2023/05/27 09:40:37;;;;;;;18.13;16.77;;;;;;;48.73;11.64;99087.09;4824744;29;20045;-73
2023/05/27 09:43:29;;;;;;;19.40;17.98;;;;;;;48.68;11.76;99091.03;4824521;29;20398;-73
2023/05/27 09:46:25;;;;;;;19.67;18.27;;;;;;;48.65;11.43;99091.00;4824790;29;20049;-72
2023/05/27 09:48:58;;;;;;;19.23;17.95;;;;;;;48.82;11.05;99096.16;4824131;29;20049;-72
2023/05/27 09:51:28;;;;;;;19.50;18.30;;;;;;;48.50;11.03;99089.09;4824799;29;20049;-72
2023/05/27 09:53:57;;;;;;;20.35;19.05;;;;;;;48.50;11.40;99091.91;4824422;29;20053;-73
2023/05/27 09:56:28;;;;;;;19.13;17.63;;;;;;;48.45;11.51;99089.38;4824889;29;20490;-72
2023/05/27 09:59:00;;;;;;;20.80;19.40;;;;;;;48.65;11.28;99088.16;4823620;29;20037;-72
2023/05/27 10:01:31;;;;;;;18.83;17.27;;;;;;;48.79;11.25;99107.38;4823199;29;20057;-72
2023/05/27 10:04:07;;;;;;;19.40;18.10;;;;;;;49.18;10.85;99102.47;4823645;29;20301;-73
2023/05/27 10:06:34;;;;;;;21.13;19.65;;;;;;;48.55;11.20;99085.94;4824242;29;20774;-73
2023/05/27 10:09:03;;;;;;;20.92;19.45;;;;;;;48.68;11.09;99082.53;4824541;29;20512;-71
2023/05/27 10:11:36;;;;;;;23.67;21.27;;;;;;;48.96;10.66;99084.28;4807792;29;20068;-70
2023/05/27 10:14:12;;;;;;;21.33;20.02;;;;;;;49.16;11.04;99090.69;4823326;29;20474;-73
2023/05/27 10:16:38;;;;;;;22.40;19.80;;;;;;;49.10;11.07;99096.63;4806971;29;20437;-74
2023/05/27 10:22:10;;;;;;;20.67;18.92;;;;;;;49.28;11.75;99090.47;4813960;29;20447;-73
2023/05/27 10:24:39;;;;;;;20.27;18.60;;;;;;;48.85;11.81;99088.94;4822728;29;20056;-73
2023/05/27 10:27:30;;;;;;;19.58;17.58;;;;;;;47.19;11.92;99087.75;4821279;29;20049;-73
2023/05/27 10:29:59;;;;;;;14.18;12.88;;;;;;;44.52;12.94;99089.22;4822252;29;20048;-72
2023/05/27 10:32:50;;;;;;;9.45;8.52;;;;;;;41.29;14.53;99089.38;4823225;29;20053;-73
2023/05/27 10:35:42;;;;;;;12.93;8.27;;;;;;;39.75;15.44;99087.22;4821081;29;20041;-72
2023/05/27 10:38:19;;;;;;;9.50;6.40;;;;;;;37.37;16.75;99090.31;4821866;29;20049;-72
2023/05/27 10:40:46;;;;;;;10.32;6.70;;;;;;;35.30;17.81;99090.97;4823018;29;20049;-73
2023/05/27 10:43:20;;;;;;;7.22;6.50;;;;;;;34.11;18.85;99095.28;4821783;29;20041;-71
2023/05/27 10:45:46;;;;;;;8.25;6.00;;;;;;;32.77;19.77;99102.56;4822686;29;20405;-71
2023/05/27 10:48:16;;;;;;;9.70;5.30;;;;;;;31.88;21.05;99107.88;4821808;29;20053;-72
2023/05/27 10:50:52;;;;;;;7.95;5.45;;;;;;;31.37;22.06;99099.03;4822298;29;20046;-73
2023/05/27 10:53:21;;;;;;;8.50;5.00;;;;;;;30.43;22.41;99091.91;4819175;29;20046;-71
2023/05/27 10:55:49;;;;;;;9.52;4.90;;;;;;;29.89;23.25;99092.38;4804108;29;20049;-76
2023/05/27 10:58:19;;;;;;;10.32;5.40;;;;;;;29.43;23.93;99107.16;4820565;29;20044;-75
2023/05/27 11:00:47;;;;;;;10.43;5.35;;;;;;;29.05;23.84;99118.69;4820707;29;20049;-74
2023/05/27 11:03:26;;;;;;;7.47;4.72;;;;;;;28.83;23.93;99113.00;4817548;29;20053;-74
2023/05/27 11:06:05;;;;;;;6.90;4.75;;;;;;;28.40;24.52;99115.25;4791683;29;20057;-74
2023/05/27 11:08:32;;;;;;;7.25;4.65;;;;;;;27.89;24.74;99108.47;4797350;29;20057;-74
2023/05/27 11:11:06;;;;;;;12.85;7.05;;;;;;;27.60;24.86;99104.69;4821163;29;20080;-74
2023/05/27 11:13:36;;;;;;;5.85;4.47;;;;;;;27.16;25.07;99110.53;4811544;29;20044;-74
2023/05/27 11:16:04;;;;;;;6.68;4.53;;;;;;;26.84;26.15;99112.56;4820619;29;20060;-73
2023/05/27 11:18:35;;;;;;;9.02;4.93;;;;;;;26.60;26.69;99141.63;4820473;29;20451;-72
2023/05/27 11:21:03;;;;;;;5.75;4.40;;;;;;;26.31;27.02;99127.56;4824242;29;20049;-75
2023/05/27 11:23:43;;;;;;;10.48;4.47;;;;;;;26.20;27.01;99114.59;4823717;29;20053;-77
2023/05/27 11:26:23;;;;;;;8.10;4.20;;;;;;;25.92;26.60;99103.28;4819498;29;20604;-75
2023/05/27 11:28:51;;;;;;;7.13;4.10;;;;;;;25.55;27.40;99111.25;4824662;29;20505;-74
2023/05/27 11:31:26;;;;;;;11.75;4.60;;;;;;;25.32;28.29;99100.03;4824494;29;20060;-76
2023/05/27 11:33:51;;;;;;;9.02;4.93;;;;;;;25.08;28.24;99089.88;4808950;29;20064;-73
2023/05/27 11:36:17;;;;;;;11.27;5.03;;;;;;;24.87;28.38;99102.72;4825818;29;20049;-74
2023/05/27 11:38:56;;;;;;;7.70;4.65;;;;;;;24.81;29.47;99097.28;4829967;29;20401;-74
2023/05/27 11:41:25;;;;;;;8.00;5.05;;;;;;;24.63;28.91;99099.84;4812820;29;20057;-75
2023/05/27 11:43:52;;;;;;;8.90;4.72;;;;;;;24.46;29.35;99108.47;4829477;29;20037;-74
2023/05/27 11:46:17;;;;;;;10.18;4.47;;;;;;;24.34;29.57;99101.16;4829425;29;20053;-74
2023/05/27 11:48:47;;;;;;;10.60;4.93;;;;;;;24.23;29.89;99099.91;4829300;29;20041;-75
2023/05/27 11:51:44;;;;;;;8.95;4.43;;;;;;;24.12;29.85;99120.41;4829025;29;20049;-75
2023/05/27 11:54:29;;;;;;;8.75;4.68;;;;;;;24.16;29.62;99109.91;4828720;29;20052;-75
2023/05/27 11:56:57;;;;;;;14.02;4.75;;;;;;;23.97;29.96;99108.03;4828754;29;20045;-76
2023/05/27 12:02:38;;;;;;;5.25;3.95;;;;;;;23.85;29.58;99114.09;4827575;29;20053;-74
2023/05/27 12:05:08;;;;;;;8.27;4.20;;;;;;;23.84;30.38;99111.56;4824773;29;20045;-75
2023/05/27 12:07:40;;;;;;;10.10;4.50;;;;;;;23.84;29.89;99127.91;4826928;29;20048;-69
2023/05/27 12:10:10;;;;;;;7.27;4.50;;;;;;;23.86;30.18;99126.66;4822777;29;20065;-76